sensor_id;sensor_type;location;lat;lon;timestamp;pressure;altitude;pressure_sealevel;temperature;humidity
78121;BME280;67585;44.802;10.332;2023-03-08T00:01:28;99758.63;;;11.84;54.43
78121;BME280;67585;44.802;10.332;2023-03-08T00:03:55;99745.47;;;11.77;53.97
78121;BME280;67585;44.802;10.332;2023-03-08T00:06:21;99762.66;;;11.62;55.14
78121;BME280;67585;44.802;10.332;2023-03-08T00:08:47;99741.72;;;11.54;54.63
78121;BME280;67585;44.802;10.332;2023-03-08T00:11:13;99780.41;;;11.68;55.51
78121;BME280;67585;44.802;10.332;2023-03-08T00:13:39;99773.50;;;11.57;55.57
78121;BME280;67585;44.802;10.332;2023-03-08T00:16:08;99742.16;;;11.37;56.28
78121;BME280;67585;44.802;10.332;2023-03-08T00:18:35;99774.44;;;11.95;54.76
78121;BME280;67585;44.802;10.332;2023-03-08T00:21:20;99747.25;;;11.92;53.83
78121;BME280;67585;44.802;10.332;2023-03-08T00:23:45;99770.53;;;11.83;54.93
78121;BME280;67585;44.802;10.332;2023-03-08T00:26:11;99749.28;;;11.76;54.37
78121;BME280;67585;44.802;10.332;2023-03-08T00:28:37;99736.47;;;11.87;54.84
78121;BME280;67585;44.802;10.332;2023-03-08T00:31:05;99746.00;;;11.79;55.20
78121;BME280;67585;44.802;10.332;2023-03-08T00:33:31;99744.75;;;11.71;55.76
78121;BME280;67585;44.802;10.332;2023-03-08T00:35:59;99743.38;;;11.74;55.54
78121;BME280;67585;44.802;10.332;2023-03-08T00:38:25;99751.00;;;11.91;54.66
78121;BME280;67585;44.802;10.332;2023-03-08T00:40:51;99749.69;;;11.64;55.42
78121;BME280;67585;44.802;10.332;2023-03-08T00:43:17;99752.69;;;11.63;54.99
78121;BME280;67585;44.802;10.332;2023-03-08T00:45:42;99746.66;;;11.71;54.61
78121;BME280;67585;44.802;10.332;2023-03-08T00:48:08;99752.78;;;11.76;54.67
78121;BME280;67585;44.802;10.332;2023-03-08T00:50:33;99719.00;;;11.36;55.05
78121;BME280;67585;44.802;10.332;2023-03-08T00:52:59;99744.00;;;11.66;54.84
78121;BME280;67585;44.802;10.332;2023-03-08T00:55:24;99749.00;;;11.77;54.81
78121;BME280;67585;44.802;10.332;2023-03-08T00:57:49;99662.81;;;11.19;54.60
78121;BME280;67585;44.802;10.332;2023-03-08T01:00:15;99737.44;;;11.72;54.29
78121;BME280;67585;44.802;10.332;2023-03-08T01:02:41;99736.66;;;11.71;54.79
78121;BME280;67585;44.802;10.332;2023-03-08T01:05:07;99730.22;;;11.19;56.38
78121;BME280;67585;44.802;10.332;2023-03-08T01:07:33;99749.25;;;11.28;56.17
78121;BME280;67585;44.802;10.332;2023-03-08T01:09:58;99723.63;;;11.01;56.38
78121;BME280;67585;44.802;10.332;2023-03-08T01:12:24;99764.09;;;11.54;55.98
78121;BME280;67585;44.802;10.332;2023-03-08T01:14:51;99748.94;;;11.59;54.94
78121;BME280;67585;44.802;10.332;2023-03-08T01:17:17;99731.38;;;11.37;55.58
78121;BME280;67585;44.802;10.332;2023-03-08T01:19:43;99757.84;;;11.59;55.82
78121;BME280;67585;44.802;10.332;2023-03-08T01:22:08;99746.13;;;11.69;55.09
78121;BME280;67585;44.802;10.332;2023-03-08T01:24:34;99740.06;;;11.58;55.59
78121;BME280;67585;44.802;10.332;2023-03-08T01:26:59;99741.38;;;11.07;56.73
78121;BME280;67585;44.802;10.332;2023-03-08T01:29:26;99766.63;;;11.46;56.43
78121;BME280;67585;44.802;10.332;2023-03-08T01:31:52;99762.34;;;11.40;55.52
78121;BME280;67585;44.802;10.332;2023-03-08T01:34:18;99755.59;;;11.42;55.33
78121;BME280;67585;44.802;10.332;2023-03-08T01:36:44;99756.16;;;11.39;55.49
78121;BME280;67585;44.802;10.332;2023-03-08T01:39:09;99753.19;;;11.11;57.10
78121;BME280;67585;44.802;10.332;2023-03-08T01:41:35;99730.72;;;11.21;55.69
78121;BME280;67585;44.802;10.332;2023-03-08T01:44:00;99763.25;;;11.30;56.13
78121;BME280;67585;44.802;10.332;2023-03-08T01:46:33;99756.13;;;11.15;56.10
78121;BME280;67585;44.802;10.332;2023-03-08T01:49:07;99745.25;;;11.25;55.94
78121;BME280;67585;44.802;10.332;2023-03-08T01:54:42;99740.31;;;11.03;56.38
78121;BME280;67585;44.802;10.332;2023-03-08T01:57:16;99753.91;;;11.22;55.69
78121;BME280;67585;44.802;10.332;2023-03-08T01:59:43;99757.06;;;11.29;55.60
78121;BME280;67585;44.802;10.332;2023-03-08T02:02:10;99741.38;;;11.07;55.95
78121;BME280;67585;44.802;10.332;2023-03-08T02:04:36;99743.28;;;11.02;55.99
78121;BME280;67585;44.802;10.332;2023-03-08T02:07:03;99741.31;;;10.83;56.20
78121;BME280;67585;44.802;10.332;2023-03-08T02:09:28;99742.78;;;11.00;55.99
78121;BME280;67585;44.802;10.332;2023-03-08T02:11:57;99723.34;;;10.74;56.97
78121;BME280;67585;44.802;10.332;2023-03-08T02:14:25;99743.78;;;10.75;56.88
78121;BME280;67585;44.802;10.332;2023-03-08T02:16:51;99721.50;;;10.69;56.75
78121;BME280;67585;44.802;10.332;2023-03-08T02:19:22;99729.22;;;11.10;55.83
78121;BME280;67585;44.802;10.332;2023-03-08T02:21:51;99731.66;;;11.06;55.79
78121;BME280;67585;44.802;10.332;2023-03-08T02:24:22;99749.34;;;11.18;55.88
78121;BME280;67585;44.802;10.332;2023-03-08T02:26:50;99726.22;;;11.11;55.93
78121;BME280;67585;44.802;10.332;2023-03-08T02:29:17;99733.13;;;10.94;55.95
78121;BME280;67585;44.802;10.332;2023-03-08T02:31:42;99735.63;;;10.85;56.48
78121;BME280;67585;44.802;10.332;2023-03-08T02:34:08;99726.94;;;10.93;55.46
78121;BME280;67585;44.802;10.332;2023-03-08T02:36:33;99722.63;;;10.97;56.48
78121;BME280;67585;44.802;10.332;2023-03-08T02:38:59;99722.25;;;10.75;56.79
78121;BME280;67585;44.802;10.332;2023-03-08T02:41:24;99725.00;;;10.99;57.39
78121;BME280;67585;44.802;10.332;2023-03-08T02:43:50;99726.53;;;11.10;57.53
78121;BME280;67585;44.802;10.332;2023-03-08T02:46:15;99719.28;;;11.05;56.75
78121;BME280;67585;44.802;10.332;2023-03-08T02:48:40;99725.81;;;10.99;56.20
78121;BME280;67585;44.802;10.332;2023-03-08T02:51:06;99713.22;;;10.89;56.56
78121;BME280;67585;44.802;10.332;2023-03-08T02:53:31;99727.91;;;11.07;56.27
78121;BME280;67585;44.802;10.332;2023-03-08T02:55:57;99719.94;;;10.92;56.88
78121;BME280;67585;44.802;10.332;2023-03-08T02:58:22;99734.22;;;10.93;57.09
78121;BME280;67585;44.802;10.332;2023-03-08T03:00:47;99748.19;;;11.00;57.22
78121;BME280;67585;44.802;10.332;2023-03-08T03:03:13;99732.44;;;10.83;57.73
78121;BME280;67585;44.802;10.332;2023-03-08T03:05:43;99729.97;;;10.86;56.55
78121;BME280;67585;44.802;10.332;2023-03-08T03:08:10;99733.66;;;11.25;55.29
78121;BME280;67585;44.802;10.332;2023-03-08T03:10:37;99729.78;;;11.07;55.74
78121;BME280;67585;44.802;10.332;2023-03-08T03:13:03;99726.22;;;11.11;56.15
78121;BME280;67585;44.802;10.332;2023-03-08T03:15:29;99754.13;;;10.97;55.94
78121;BME280;67585;44.802;10.332;2023-03-08T03:17:55;99746.66;;;10.88;56.86
78121;BME280;67585;44.802;10.332;2023-03-08T03:20:21;99745.56;;;10.89;56.26
78121;BME280;67585;44.802;10.332;2023-03-08T03:22:46;99765.16;;;11.00;56.43
78121;BME280;67585;44.802;10.332;2023-03-08T03:25:12;99756.63;;;10.88;56.85
78121;BME280;67585;44.802;10.332;2023-03-08T03:27:37;99747.63;;;10.68;56.38
78121;BME280;67585;44.802;10.332;2023-03-08T03:30:05;99758.53;;;10.87;55.59
78121;BME280;67585;44.802;10.332;2023-03-08T03:32:30;99769.25;;;10.93;55.80
78121;BME280;67585;44.802;10.332;2023-03-08T03:34:56;99760.22;;;10.78;56.59
78121;BME280;67585;44.802;10.332;2023-03-08T03:37:21;99779.06;;;10.78;57.14
78121;BME280;67585;44.802;10.332;2023-03-08T03:39:47;99776.06;;;10.80;56.34
78121;BME280;67585;44.802;10.332;2023-03-08T03:42:12;99763.88;;;10.53;57.19
78121;BME280;67585;44.802;10.332;2023-03-08T03:44:38;99767.75;;;9.72;59.42
78121;BME280;67585;44.802;10.332;2023-03-08T03:47:04;99783.94;;;9.61;60.73
78121;BME280;67585;44.802;10.332;2023-03-08T03:49:29;99777.69;;;9.76;60.21
78121;BME280;67585;44.802;10.332;2023-03-08T03:51:55;99772.00;;;9.93;59.58
78121;BME280;67585;44.802;10.332;2023-03-08T03:54:20;99790.91;;;9.62;60.68
78121;BME280;67585;44.802;10.332;2023-03-08T03:56:45;99787.09;;;9.84;60.58
78121;BME280;67585;44.802;10.332;2023-03-08T03:59:11;99784.38;;;9.89;59.87
78121;BME280;67585;44.802;10.332;2023-03-08T04:01:36;99793.72;;;10.02;59.27
78121;BME280;67585;44.802;10.332;2023-03-08T04:04:02;99744.13;;;9.58;59.70
78121;BME280;67585;44.802;10.332;2023-03-08T04:06:29;99779.28;;;9.82;60.09
78121;BME280;67585;44.802;10.332;2023-03-08T04:08:57;99789.16;;;10.08;59.82
78121;BME280;67585;44.802;10.332;2023-03-08T04:11:26;99802.09;;;10.00;59.52
78121;BME280;67585;44.802;10.332;2023-03-08T04:13:51;99790.00;;;9.98;59.88
78121;BME280;67585;44.802;10.332;2023-03-08T04:16:23;99804.47;;;10.12;58.84
78121;BME280;67585;44.802;10.332;2023-03-08T04:18:54;99806.94;;;9.98;59.54
78121;BME280;67585;44.802;10.332;2023-03-08T04:21:20;99800.19;;;10.06;59.55
78121;BME280;67585;44.802;10.332;2023-03-08T04:23:46;99815.03;;;9.93;59.87
78121;BME280;67585;44.802;10.332;2023-03-08T04:26:11;99801.03;;;9.96;59.36
78121;BME280;67585;44.802;10.332;2023-03-08T04:28:38;99802.16;;;9.80;59.70
78121;BME280;67585;44.802;10.332;2023-03-08T04:31:21;99806.16;;;9.82;59.21
78121;BME280;67585;44.802;10.332;2023-03-08T04:33:47;99814.50;;;9.91;59.57
78121;BME280;67585;44.802;10.332;2023-03-08T04:36:13;99820.84;;;10.21;58.15
78121;BME280;67585;44.802;10.332;2023-03-08T04:38:40;99827.09;;;10.06;58.82
78121;BME280;67585;44.802;10.332;2023-03-08T04:41:05;99797.00;;;9.94;59.17
78121;BME280;67585;44.802;10.332;2023-03-08T04:43:44;99820.13;;;9.90;59.54
78121;BME280;67585;44.802;10.332;2023-03-08T04:46:10;99816.13;;;9.87;59.79
78121;BME280;67585;44.802;10.332;2023-03-08T04:48:35;99805.88;;;9.89;59.59
78121;BME280;67585;44.802;10.332;2023-03-08T04:51:02;99825.56;;;9.74;59.92
78121;BME280;67585;44.802;10.332;2023-03-08T04:53:30;99834.22;;;9.51;60.50
78121;BME280;67585;44.802;10.332;2023-03-08T04:55:56;99836.88;;;9.56;60.58
78121;BME280;67585;44.802;10.332;2023-03-08T04:58:23;99823.19;;;9.32;60.29
78121;BME280;67585;44.802;10.332;2023-03-08T05:00:48;99831.28;;;9.16;61.07
78121;BME280;67585;44.802;10.332;2023-03-08T05:03:14;99806.28;;;8.70;61.98
78121;BME280;67585;44.802;10.332;2023-03-08T05:05:47;99826.16;;;8.89;62.15
78121;BME280;67585;44.802;10.332;2023-03-08T05:08:13;99830.19;;;9.12;61.38
78121;BME280;67585;44.802;10.332;2023-03-08T05:10:39;99807.88;;;8.76;62.18
78121;BME280;67585;44.802;10.332;2023-03-08T05:13:04;99798.75;;;9.03;61.90
78121;BME280;67585;44.802;10.332;2023-03-08T05:15:30;99812.22;;;9.13;61.09
78121;BME280;67585;44.802;10.332;2023-03-08T05:17:55;99815.44;;;8.94;61.37
78121;BME280;67585;44.802;10.332;2023-03-08T05:20:21;99790.16;;;8.85;60.82
78121;BME280;67585;44.802;10.332;2023-03-08T05:22:46;99787.22;;;8.92;61.12
78121;BME280;67585;44.802;10.332;2023-03-08T05:25:11;99802.00;;;9.10;60.74
78121;BME280;67585;44.802;10.332;2023-03-08T05:27:37;99814.63;;;9.14;60.93
78121;BME280;67585;44.802;10.332;2023-03-08T05:30:03;99823.22;;;9.27;60.21
78121;BME280;67585;44.802;10.332;2023-03-08T05:32:29;99808.44;;;9.24;60.79
78121;BME280;67585;44.802;10.332;2023-03-08T05:34:54;99807.09;;;8.86;61.54
78121;BME280;67585;44.802;10.332;2023-03-08T05:37:20;99816.50;;;8.93;60.96
78121;BME280;67585;44.802;10.332;2023-03-08T05:39:46;99821.88;;;9.29;61.08
78121;BME280;67585;44.802;10.332;2023-03-08T05:42:12;99813.28;;;9.17;60.08
78121;BME280;67585;44.802;10.332;2023-03-08T05:44:38;99806.03;;;9.17;61.14
78121;BME280;67585;44.802;10.332;2023-03-08T05:47:03;99813.28;;;9.27;61.32
78121;BME280;67585;44.802;10.332;2023-03-08T05:49:29;99820.53;;;9.01;62.00
78121;BME280;67585;44.802;10.332;2023-03-08T05:51:54;99835.84;;;9.31;61.26
78121;BME280;67585;44.802;10.332;2023-03-08T05:54:20;99836.34;;;9.49;60.71
78121;BME280;67585;44.802;10.332;2023-03-08T05:56:46;99853.03;;;9.40;59.90
78121;BME280;67585;44.802;10.332;2023-03-08T05:59:11;99846.59;;;9.47;59.88
78121;BME280;67585;44.802;10.332;2023-03-08T06:01:36;99839.06;;;9.44;59.89
78121;BME280;67585;44.802;10.332;2023-03-08T06:04:02;99844.44;;;9.28;60.48
78121;BME280;67585;44.802;10.332;2023-03-08T06:06:27;99834.75;;;8.86;62.02
78121;BME280;67585;44.802;10.332;2023-03-08T06:08:53;99851.97;;;9.16;61.33
78121;BME280;67585;44.802;10.332;2023-03-08T06:11:20;99848.19;;;9.12;61.16
78121;BME280;67585;44.802;10.332;2023-03-08T06:13:45;99849.84;;;9.13;61.41
78121;BME280;67585;44.802;10.332;2023-03-08T06:16:11;99862.19;;;9.24;61.67
78121;BME280;67585;44.802;10.332;2023-03-08T06:18:38;99851.69;;;9.07;60.65
78121;BME280;67585;44.802;10.332;2023-03-08T06:21:07;99870.78;;;9.21;60.98
78121;BME280;67585;44.802;10.332;2023-03-08T06:23:34;99852.25;;;9.40;60.42
78121;BME280;67585;44.802;10.332;2023-03-08T06:26:00;99856.00;;;9.54;59.94
78121;BME280;67585;44.802;10.332;2023-03-08T06:28:27;99858.94;;;9.58;59.88
78121;BME280;67585;44.802;10.332;2023-03-08T06:30:53;99875.88;;;9.69;60.19
78121;BME280;67585;44.802;10.332;2023-03-08T06:33:22;99874.00;;;9.59;60.11
78121;BME280;67585;44.802;10.332;2023-03-08T06:36:09;99889.00;;;9.96;58.89
78121;BME280;67585;44.802;10.332;2023-03-08T06:38:37;99900.03;;;9.89;59.35
78121;BME280;67585;44.802;10.332;2023-03-08T06:41:03;99897.59;;;9.88;58.92
78121;BME280;67585;44.802;10.332;2023-03-08T06:43:29;99894.69;;;9.79;59.23
78121;BME280;67585;44.802;10.332;2023-03-08T06:45:55;99893.06;;;9.68;60.01
78121;BME280;67585;44.802;10.332;2023-03-08T06:48:21;99893.88;;;9.68;59.62
78121;BME280;67585;44.802;10.332;2023-03-08T06:50:46;99896.41;;;10.95;63.14
78121;BME280;67585;44.802;10.332;2023-03-08T06:53:12;99872.56;;;11.17;55.41
78121;BME280;67585;44.802;10.332;2023-03-08T06:55:39;99900.00;;;10.80;56.59
78121;BME280;67585;44.802;10.332;2023-03-08T06:58:05;99930.25;;;10.66;56.09
78121;BME280;67585;44.802;10.332;2023-03-08T07:00:31;99915.53;;;10.38;57.21
78121;BME280;67585;44.802;10.332;2023-03-08T07:02:57;99929.28;;;10.26;57.73
78121;BME280;67585;44.802;10.332;2023-03-08T07:05:22;99923.84;;;10.52;56.46
78121;BME280;67585;44.802;10.332;2023-03-08T07:07:48;99829.81;;;9.96;56.14
78121;BME280;67585;44.802;10.332;2023-03-08T07:10:14;99928.97;;;10.54;56.63
78121;BME280;67585;44.802;10.332;2023-03-08T07:12:41;99939.41;;;10.65;56.63
78121;BME280;67585;44.802;10.332;2023-03-08T07:15:11;99929.53;;;11.00;55.13
78121;BME280;67585;44.802;10.332;2023-03-08T07:17:41;99945.22;;;10.88;55.29
78121;BME280;67585;44.802;10.332;2023-03-08T07:20:09;99962.94;;;10.99;55.41
78121;BME280;67585;44.802;10.332;2023-03-08T07:22:35;99959.72;;;11.02;55.28
78121;BME280;67585;44.802;10.332;2023-03-08T07:25:00;99960.31;;;11.73;53.96
78121;BME280;67585;44.802;10.332;2023-03-08T07:27:26;99954.03;;;12.12;52.33
78121;BME280;67585;44.802;10.332;2023-03-08T07:29:52;99949.66;;;11.87;51.83
78121;BME280;67585;44.802;10.332;2023-03-08T07:32:17;99963.16;;;11.52;52.68
78121;BME280;67585;44.802;10.332;2023-03-08T07:34:43;99970.09;;;11.64;53.29
78121;BME280;67585;44.802;10.332;2023-03-08T07:37:13;99968.66;;;11.37;53.29
78121;BME280;67585;44.802;10.332;2023-03-08T07:39:38;99977.88;;;12.05;51.57
78121;BME280;67585;44.802;10.332;2023-03-08T07:42:04;99951.09;;;11.74;51.75
78121;BME280;67585;44.802;10.332;2023-03-08T07:44:29;99978.66;;;12.05;52.70
78121;BME280;67585;44.802;10.332;2023-03-08T07:46:55;99964.00;;;12.16;53.27
78121;BME280;67585;44.802;10.332;2023-03-08T07:49:20;99956.53;;;12.03;53.97
78121;BME280;67585;44.802;10.332;2023-03-08T07:51:48;99964.44;;;11.60;53.88
78121;BME280;67585;44.802;10.332;2023-03-08T07:54:13;99987.59;;;12.01;53.09
78121;BME280;67585;44.802;10.332;2023-03-08T07:56:39;99978.88;;;12.14;52.80
78121;BME280;67585;44.802;10.332;2023-03-08T07:59:04;99990.69;;;12.18;52.25
78121;BME280;67585;44.802;10.332;2023-03-08T08:01:29;99951.50;;;12.21;52.08
78121;BME280;67585;44.802;10.332;2023-03-08T08:03:58;99998.41;;;12.30;52.50
78121;BME280;67585;44.802;10.332;2023-03-08T08:06:23;100004.81;;;12.63;51.61
78121;BME280;67585;44.802;10.332;2023-03-08T08:08:49;99998.81;;;12.66;51.50
78121;BME280;67585;44.802;10.332;2023-03-08T08:11:16;99993.94;;;12.92;51.37
78121;BME280;67585;44.802;10.332;2023-03-08T08:13:44;100004.94;;;13.77;49.64
78121;BME280;67585;44.802;10.332;2023-03-08T08:16:10;100010.22;;;13.30;49.43
78121;BME280;67585;44.802;10.332;2023-03-08T08:18:36;100003.47;;;13.46;50.75
78121;BME280;67585;44.802;10.332;2023-03-08T08:21:03;100020.31;;;13.95;47.79
78121;BME280;67585;44.802;10.332;2023-03-08T08:23:29;100025.09;;;14.17;49.11
78121;BME280;67585;44.802;10.332;2023-03-08T08:25:55;100024.38;;;14.11;49.45
78121;BME280;67585;44.802;10.332;2023-03-08T08:28:22;100006.25;;;14.26;48.34
78121;BME280;67585;44.802;10.332;2023-03-08T08:31:03;100008.16;;;13.79;49.00
78121;BME280;67585;44.802;10.332;2023-03-08T08:33:30;100025.38;;;13.83;49.88
78121;BME280;67585;44.802;10.332;2023-03-08T08:35:56;100014.81;;;14.00;48.83
78121;BME280;67585;44.802;10.332;2023-03-08T08:38:22;100015.75;;;14.09;48.91
78121;BME280;67585;44.802;10.332;2023-03-08T08:40:48;100015.00;;;13.71;49.76
78121;BME280;67585;44.802;10.332;2023-03-08T08:43:14;100026.00;;;14.87;47.84
78121;BME280;67585;44.802;10.332;2023-03-08T08:45:43;99995.22;;;14.36;48.38
78121;BME280;67585;44.802;10.332;2023-03-08T08:48:09;100019.28;;;14.24;48.52
78121;BME280;67585;44.802;10.332;2023-03-08T08:50:37;100003.75;;;14.16;49.34
78121;BME280;67585;44.802;10.332;2023-03-08T08:53:02;99980.34;;;14.06;49.23
78121;BME280;67585;44.802;10.332;2023-03-08T08:55:27;99989.44;;;14.70;48.10
78121;BME280;67585;44.802;10.332;2023-03-08T08:57:53;99999.16;;;15.13;47.43
78121;BME280;67585;44.802;10.332;2023-03-08T09:00:18;99995.22;;;15.19;47.32
78121;BME280;67585;44.802;10.332;2023-03-08T09:02:44;99993.44;;;15.01;47.48
78121;BME280;67585;44.802;10.332;2023-03-08T09:05:09;99988.53;;;15.39;46.51
78121;BME280;67585;44.802;10.332;2023-03-08T09:07:35;99979.56;;;15.75;45.97
78121;BME280;67585;44.802;10.332;2023-03-08T09:10:00;99982.34;;;15.25;46.53
78121;BME280;67585;44.802;10.332;2023-03-08T09:12:27;99999.50;;;15.34;46.41
78121;BME280;67585;44.802;10.332;2023-03-08T09:14:53;100001.59;;;15.96;45.97
78121;BME280;67585;44.802;10.332;2023-03-08T09:17:18;100013.63;;;15.22;46.70
78121;BME280;67585;44.802;10.332;2023-03-08T09:19:44;100015.13;;;15.51;47.49
78121;BME280;67585;44.802;10.332;2023-03-08T09:22:09;100030.38;;;16.28;44.88
78121;BME280;67585;44.802;10.332;2023-03-08T09:24:35;100027.09;;;15.86;45.59
78121;BME280;67585;44.802;10.332;2023-03-08T09:27:00;100041.47;;;15.87;46.71
78121;BME280;67585;44.802;10.332;2023-03-08T09:29:28;100044.84;;;15.70;47.16
78121;BME280;67585;44.802;10.332;2023-03-08T09:31:54;100041.09;;;15.43;47.12
78121;BME280;67585;44.802;10.332;2023-03-08T09:34:19;100037.94;;;15.64;46.69
78121;BME280;67585;44.802;10.332;2023-03-08T09:36:44;100039.50;;;15.78;46.45
78121;BME280;67585;44.802;10.332;2023-03-08T09:39:11;100032.09;;;16.47;44.64
78121;BME280;67585;44.802;10.332;2023-03-08T09:42:01;100044.66;;;16.34;45.78
78121;BME280;67585;44.802;10.332;2023-03-08T09:52:35;100011.00;;;15.53;46.34
78121;BME280;67585;44.802;10.332;2023-03-08T09:55:04;100043.28;;;16.45;44.88
78121;BME280;67585;44.802;10.332;2023-03-08T09:57:35;100045.59;;;17.00;42.83
78121;BME280;67585;44.802;10.332;2023-03-08T10:00:05;100024.34;;;17.20;42.52
78121;BME280;67585;44.802;10.332;2023-03-08T10:05:35;100029.88;;;16.80;43.99
78121;BME280;67585;44.802;10.332;2023-03-08T10:08:13;100019.97;;;16.93;43.65
78121;BME280;67585;44.802;10.332;2023-03-08T10:13:36;100017.25;;;16.93;44.53
78121;BME280;67585;44.802;10.332;2023-03-08T10:16:15;100022.13;;;17.30;43.31
78121;BME280;67585;44.802;10.332;2023-03-08T10:19:05;100001.25;;;16.91;43.97
78121;BME280;67585;44.802;10.332;2023-03-08T10:21:32;99979.66;;;16.95;43.87
78121;BME280;67585;44.802;10.332;2023-03-08T10:24:10;99994.25;;;17.42;43.19
78121;BME280;67585;44.802;10.332;2023-03-08T10:26:40;99990.59;;;17.56;42.90
78121;BME280;67585;44.802;10.332;2023-03-08T10:29:05;99994.81;;;18.26;40.68
78121;BME280;67585;44.802;10.332;2023-03-08T10:31:31;99999.59;;;18.29;39.89
78121;BME280;67585;44.802;10.332;2023-03-08T10:34:13;99991.88;;;17.84;41.17
78121;BME280;67585;44.802;10.332;2023-03-08T10:39:13;99975.41;;;18.28;40.35
78121;BME280;67585;44.802;10.332;2023-03-08T10:41:44;99975.81;;;17.74;40.85
78121;BME280;67585;44.802;10.332;2023-03-08T10:44:26;99977.44;;;17.66;40.94
78121;BME280;67585;44.802;10.332;2023-03-08T10:46:52;99956.88;;;18.04;39.91
78121;BME280;67585;44.802;10.332;2023-03-08T10:49:18;99966.28;;;18.62;38.88
78121;BME280;67585;44.802;10.332;2023-03-08T10:52:13;99969.91;;;17.81;40.63
78121;BME280;67585;44.802;10.332;2023-03-08T10:54:43;99980.97;;;17.32;42.27
78121;BME280;67585;44.802;10.332;2023-03-08T10:57:16;99948.72;;;17.86;40.64
78121;BME280;67585;44.802;10.332;2023-03-08T10:59:47;99957.53;;;18.48;40.06
78121;BME280;67585;44.802;10.332;2023-03-08T11:04:51;99962.41;;;18.93;38.55
78121;BME280;67585;44.802;10.332;2023-03-08T11:07:21;99961.63;;;18.63;40.04
78121;BME280;67585;44.802;10.332;2023-03-08T11:09:48;99950.22;;;18.61;39.28
78121;BME280;67585;44.802;10.332;2023-03-08T11:12:24;99935.69;;;18.48;39.71
78121;BME280;67585;44.802;10.332;2023-03-08T11:14:50;99939.47;;;18.94;39.27
78121;BME280;67585;44.802;10.332;2023-03-08T11:17:32;99938.88;;;19.09;38.76
78121;BME280;67585;44.802;10.332;2023-03-08T11:20:39;99942.25;;;19.48;37.90
78121;BME280;67585;44.802;10.332;2023-03-08T11:26:13;99970.16;;;19.12;38.54
78121;BME280;67585;44.802;10.332;2023-03-08T11:36:37;99953.81;;;18.05;40.78
78121;BME280;67585;44.802;10.332;2023-03-08T11:41:49;99944.25;;;17.73;41.29
78121;BME280;67585;44.802;10.332;2023-03-08T11:52:36;99953.25;;;17.65;41.74
78121;BME280;67585;44.802;10.332;2023-03-08T11:58:37;99948.16;;;17.46;42.06
78121;BME280;67585;44.802;10.332;2023-03-08T12:01:14;99954.53;;;17.85;41.33
78121;BME280;67585;44.802;10.332;2023-03-08T12:03:48;99930.28;;;18.69;39.20
78121;BME280;67585;44.802;10.332;2023-03-08T12:06:24;99936.13;;;19.09;38.46
78121;BME280;67585;44.802;10.332;2023-03-08T12:08:57;99925.44;;;18.74;39.76
78121;BME280;67585;44.802;10.332;2023-03-08T12:11:39;99921.72;;;18.49;40.55
78121;BME280;67585;44.802;10.332;2023-03-08T12:14:26;99924.81;;;18.39;40.87
78121;BME280;67585;44.802;10.332;2023-03-08T12:17:24;99894.78;;;18.18;40.81
78121;BME280;67585;44.802;10.332;2023-03-08T12:19:51;99914.06;;;18.04;41.59
78121;BME280;67585;44.802;10.332;2023-03-08T12:25:18;99936.56;;;17.66;42.29
78121;BME280;67585;44.802;10.332;2023-03-08T12:30:26;99934.34;;;18.63;39.90
78121;BME280;67585;44.802;10.332;2023-03-08T12:32:54;99920.59;;;18.80;39.40
78121;BME280;67585;44.802;10.332;2023-03-08T12:38:03;99919.72;;;18.67;40.02
78121;BME280;67585;44.802;10.332;2023-03-08T12:40:42;99929.81;;;18.37;40.31
78121;BME280;67585;44.802;10.332;2023-03-08T12:48:29;99914.69;;;18.10;40.52
78121;BME280;67585;44.802;10.332;2023-03-08T12:53:39;99900.91;;;17.33;42.18
78121;BME280;67585;44.802;10.332;2023-03-08T12:58:37;99883.28;;;17.39;42.23
78121;BME280;67585;44.802;10.332;2023-03-08T13:01:23;99897.16;;;17.64;42.02
78121;BME280;67585;44.802;10.332;2023-03-08T13:03:51;99862.81;;;17.33;41.62
78121;BME280;67585;44.802;10.332;2023-03-08T13:08:54;99877.84;;;17.39;42.12
78121;BME280;67585;44.802;10.332;2023-03-08T13:11:23;99888.59;;;17.09;43.33
78121;BME280;67585;44.802;10.332;2023-03-08T13:13:57;99869.38;;;16.97;43.18
78121;BME280;67585;44.802;10.332;2023-03-08T13:16:36;99893.47;;;17.60;42.62
78121;BME280;67585;44.802;10.332;2023-03-08T13:19:11;99898.44;;;17.66;42.15
78121;BME280;67585;44.802;10.332;2023-03-08T13:21:45;99884.56;;;17.16;43.39
78121;BME280;67585;44.802;10.332;2023-03-08T13:29:51;99872.09;;;17.15;44.22
78121;BME280;67585;44.802;10.332;2023-03-08T13:32:19;99848.72;;;17.22;44.82
78121;BME280;67585;44.802;10.332;2023-03-08T13:34:57;99838.78;;;17.18;44.36
78121;BME280;67585;44.802;10.332;2023-03-08T13:37:25;99838.09;;;17.56;43.14
78121;BME280;67585;44.802;10.332;2023-03-08T13:39:56;99845.22;;;17.78;42.57
78121;BME280;67585;44.802;10.332;2023-03-08T13:42:24;99862.91;;;17.63;44.21
78121;BME280;67585;44.802;10.332;2023-03-08T13:44:51;99854.44;;;17.47;42.98
78121;BME280;67585;44.802;10.332;2023-03-08T13:47:32;99855.81;;;17.62;39.68
78121;BME280;67585;44.802;10.332;2023-03-08T13:49:58;99828.59;;;17.62;38.52
78121;BME280;67585;44.802;10.332;2023-03-08T13:52:29;99834.50;;;17.72;40.12
78121;BME280;67585;44.802;10.332;2023-03-08T13:55:07;99826.88;;;17.48;39.95
78121;BME280;67585;44.802;10.332;2023-03-08T13:57:40;99842.97;;;17.80;38.90
78121;BME280;67585;44.802;10.332;2023-03-08T14:00:23;99872.69;;;18.11;38.71
78121;BME280;67585;44.802;10.332;2023-03-08T14:02:49;99870.41;;;18.13;39.19
78121;BME280;67585;44.802;10.332;2023-03-08T14:05:26;99853.84;;;17.88;39.50
78121;BME280;67585;44.802;10.332;2023-03-08T14:08:02;99871.38;;;18.17;41.23
78121;BME280;67585;44.802;10.332;2023-03-08T14:10:35;99882.06;;;17.84;43.60